createdAt,value
2023-04-07T00:10:18.886Z,100578.23
2023-04-07T00:25:22.015Z,100565.99
2023-04-07T00:40:25.531Z,100560.67
2023-04-07T00:55:28.566Z,100551.55
2023-04-07T01:10:42.065Z,100537.06
2023-04-07T01:26:21.884Z,100529.73
2023-04-07T01:41:26.088Z,100515.80
2023-04-07T01:56:29.757Z,100503.00
2023-04-07T02:11:37.712Z,100494.21
2023-04-07T02:26:43.473Z,100502.45
2023-04-07T02:41:46.662Z,100494.73
2023-04-07T02:56:50.028Z,100486.89
2023-04-07T03:11:53.174Z,100483.16
2023-04-07T03:26:56.878Z,100480.09
2023-04-07T03:42:08.550Z,100484.29
2023-04-07T03:57:11.800Z,100496.95
2023-04-07T04:12:18.478Z,100485.42
2023-04-07T04:27:29.060Z,100487.02
2023-04-07T04:42:38.614Z,100496.56
2023-04-07T04:57:44.148Z,100502.48
2023-04-07T05:12:49.458Z,100507.30
2023-04-07T05:27:52.876Z,100507.38
2023-04-07T05:42:56.354Z,100506.95
2023-04-07T05:58:00.767Z,100509.86
2023-04-07T06:13:05.742Z,100522.52
2023-04-07T06:28:09.179Z,100530.36
2023-04-07T06:43:12.401Z,100528.92
2023-04-07T06:58:25.341Z,100513.48
2023-04-07T07:13:28.694Z,100511.33
2023-04-07T07:28:32.033Z,100520.31
2023-04-07T07:43:35.169Z,100524.69
2023-04-07T07:58:38.688Z,100518.77
2023-04-07T08:13:45.774Z,100526.66
2023-04-07T08:28:52.385Z,100525.21
2023-04-07T08:43:58.383Z,100532.09
2023-04-07T08:59:07.353Z,100527.56
2023-04-07T09:14:11.111Z,100524.92
2023-04-07T09:29:20.057Z,100526.34
2023-04-07T09:44:24.132Z,100520.13
2023-04-07T09:59:28.664Z,100518.41
2023-04-07T10:14:35.774Z,100520.59
2023-04-07T10:29:43.064Z,100504.52
2023-04-07T10:44:48.536Z,100488.09
2023-04-07T11:00:10.166Z,100491.87
2023-04-07T11:15:22.526Z,100505.15
2023-04-07T11:30:25.760Z,100498.16
2023-04-07T11:45:29.190Z,100492.94
2023-04-07T12:00:32.446Z,100475.20
2023-04-07T12:15:37.696Z,100478.36
2023-04-07T12:30:40.832Z,100475.95
2023-04-07T12:45:44.177Z,100488.77
2023-04-07T13:00:47.955Z,100475.54
2023-04-07T13:15:52.046Z,100468.90
2023-04-07T13:30:55.356Z,100461.00
2023-04-07T13:45:58.485Z,100450.84
2023-04-07T14:01:02.178Z,100433.91
2023-04-07T14:16:05.728Z,100421.33
2023-04-07T14:31:14.574Z,100410.81
2023-04-07T14:46:17.976Z,100404.48
2023-04-07T15:01:21.230Z,100400.14
2023-04-07T15:16:24.636Z,100435.48
2023-04-07T15:31:28.774Z,100483.30
2023-04-07T15:46:32.514Z,100495.78
2023-04-07T16:01:36.914Z,100512.68
2023-04-07T16:16:41.687Z,100516.69
2023-04-07T16:31:45.642Z,100523.52
2023-04-07T16:46:49.192Z,100534.16
2023-04-07T17:01:52.486Z,100561.51
2023-04-07T17:16:56.381Z,100579.56
2023-04-07T17:31:59.998Z,100597.06
2023-04-07T17:47:03.644Z,100625.02
2023-04-07T18:02:09.232Z,100641.61
2023-04-07T18:17:13.194Z,100662.58
2023-04-07T18:32:16.932Z,100681.09
2023-04-07T18:47:20.889Z,100701.06
2023-04-07T19:02:24.560Z,100707.00
2023-04-07T19:17:27.891Z,100730.05
2023-04-07T19:32:31.539Z,100749.02
2023-04-07T19:47:36.185Z,100758.26
2023-04-07T20:02:39.620Z,100774.75
2023-04-07T20:17:44.201Z,100790.09
2023-04-07T20:32:48.561Z,100815.05
2023-04-07T20:47:51.826Z,100826.86
2023-04-07T21:02:55.070Z,100838.44
2023-04-07T21:17:58.367Z,100850.85
2023-04-07T21:33:01.917Z,100858.63
2023-04-07T21:48:05.593Z,100873.19
2023-04-07T22:03:09.144Z,100883.10
2023-04-07T22:18:13.458Z,100884.78
2023-04-07T22:33:16.864Z,100891.41
2023-04-07T22:48:20.045Z,100896.94
2023-04-07T23:03:23.331Z,100909.29
2023-04-07T23:18:26.715Z,100924.19
2023-04-07T23:33:31.899Z,100928.88
2023-04-07T23:48:35.792Z,100927.64
